createdAt,value
2017-12-14T00:00:23.005Z,23.77
2017-12-14T00:02:49.284Z,15.25
2017-12-14T00:05:15.514Z,13.98
2017-12-14T00:07:41.747Z,19.50
2017-12-14T00:10:08.086Z,18.10
2017-12-14T00:12:34.304Z,18.17
2017-12-14T00:15:00.555Z,16.55
2017-12-14T00:17:26.839Z,18.23
2017-12-14T00:19:53.053Z,13.73
2017-12-14T00:22:19.359Z,14.60
2017-12-14T00:24:45.509Z,13.93
2017-12-14T00:27:11.707Z,11.93
2017-12-14T00:29:37.948Z,12.95
2017-12-14T00:32:04.170Z,14.52
2017-12-14T00:34:30.420Z,20.08
2017-12-14T00:36:56.636Z,23.35
2017-12-14T00:39:22.825Z,26.85
2017-12-14T00:41:49.025Z,21.83
2017-12-14T00:44:15.282Z,23.15
2017-12-14T00:46:41.485Z,31.42
2017-12-14T00:49:07.686Z,28.55
2017-12-14T00:51:34.394Z,36.58
2017-12-14T00:54:00.656Z,43.55
2017-12-14T00:56:27.233Z,42.80
2017-12-14T00:58:53.473Z,24.67
2017-12-14T01:01:19.676Z,29.37
2017-12-14T01:03:45.944Z,24.70
2017-12-14T01:06:12.229Z,20.95
2017-12-14T01:08:38.452Z,17.98
2017-12-14T01:11:04.647Z,21.83
2017-12-14T01:13:30.944Z,35.53
2017-12-14T01:15:57.165Z,38.95
2017-12-14T01:18:23.381Z,27.62
2017-12-14T01:20:49.696Z,26.08
2017-12-14T01:23:15.912Z,31.48
2017-12-14T01:25:42.491Z,21.95
2017-12-14T01:28:08.691Z,27.10
2017-12-14T01:30:34.939Z,27.77
2017-12-14T01:33:01.145Z,23.83
2017-12-14T01:35:27.374Z,29.08
2017-12-14T01:37:53.634Z,30.45
2017-12-14T01:40:19.913Z,25.50
2017-12-14T01:42:46.473Z,35.38
2017-12-14T01:45:12.690Z,28.42
2017-12-14T01:47:38.925Z,21.35
2017-12-14T01:50:05.781Z,22.02
2017-12-14T01:52:32.048Z,14.63
2017-12-14T01:54:58.324Z,13.95
2017-12-14T01:57:24.575Z,18.10
2017-12-14T01:59:50.887Z,27.40
2017-12-14T02:02:17.092Z,25.73
2017-12-14T02:04:43.325Z,25.55
2017-12-14T02:07:09.562Z,32.83
2017-12-14T02:09:35.783Z,43.40
2017-12-14T02:12:01.989Z,44.47
2017-12-14T02:14:28.255Z,42.05
2017-12-14T02:16:54.495Z,42.80
2017-12-14T02:19:20.700Z,42.40
2017-12-14T02:21:47.087Z,44.97
2017-12-14T02:24:14.300Z,47.80
2017-12-14T02:26:40.540Z,49.15
2017-12-14T02:29:06.751Z,46.70
2017-12-14T02:31:32.944Z,50.12
2017-12-14T02:33:59.525Z,48.72
2017-12-14T02:36:25.764Z,45.65
2017-12-14T02:38:52.062Z,47.45
2017-12-14T02:41:18.249Z,48.20
2017-12-14T02:43:44.469Z,48.00
2017-12-14T02:46:10.663Z,47.05
2017-12-14T02:48:37.808Z,47.70
2017-12-14T02:51:04.030Z,52.50
2017-12-14T02:53:30.258Z,52.88
2017-12-14T02:55:56.465Z,46.50
2017-12-14T02:58:23.062Z,49.15
2017-12-14T03:00:49.330Z,40.65
2017-12-14T03:03:15.556Z,39.38
2017-12-14T03:05:42.156Z,28.27
2017-12-14T03:08:08.395Z,24.92
2017-12-14T03:10:34.614Z,32.33
2017-12-14T03:13:00.819Z,28.73
2017-12-14T03:15:27.010Z,32.17
2017-12-14T03:17:53.224Z,11.63
2017-12-14T03:20:19.794Z,33.78
2017-12-14T03:22:46.024Z,21.30
2017-12-14T03:25:12.246Z,14.20
2017-12-14T03:27:38.553Z,14.43
2017-12-14T03:30:05.158Z,21.10
2017-12-14T03:32:31.380Z,17.05
2017-12-14T03:34:57.685Z,39.78
2017-12-14T03:37:23.884Z,36.72
2017-12-14T03:39:50.129Z,40.53
2017-12-14T03:42:16.465Z,40.10
2017-12-14T03:44:42.653Z,36.47
2017-12-14T03:47:09.321Z,40.67
2017-12-14T03:49:35.539Z,40.95
2017-12-14T03:52:01.821Z,41.05
2017-12-14T03:54:28.123Z,41.65
2017-12-14T03:56:54.341Z,41.53
2017-12-14T03:59:20.548Z,45.28
2017-12-14T04:01:46.728Z,43.50
2017-12-14T04:04:12.964Z,39.03
2017-12-14T04:06:39.180Z,34.00
2017-12-14T04:09:05.425Z,36.50
2017-12-14T04:11:31.953Z,39.78
2017-12-14T04:13:58.176Z,38.67
2017-12-14T04:16:24.418Z,40.88
2017-12-14T04:18:50.704Z,19.15
2017-12-14T04:21:16.911Z,28.73
2017-12-14T04:23:43.175Z,24.83
2017-12-14T04:26:09.445Z,12.95
2017-12-14T04:28:35.700Z,9.85
2017-12-14T04:31:01.963Z,8.02
2017-12-14T04:33:28.824Z,5.80
2017-12-14T04:35:56.067Z,1.77
2017-12-14T04:38:22.355Z,1.98
2017-12-14T04:40:48.618Z,1.42
2017-12-14T04:43:14.862Z,1.95
2017-12-14T04:45:41.084Z,1.67
2017-12-14T04:48:07.412Z,4.72
2017-12-14T04:50:33.640Z,5.25
2017-12-14T04:52:59.893Z,2.90
2017-12-14T04:55:26.539Z,3.53
2017-12-14T04:57:53.220Z,4.60
2017-12-14T05:00:19.482Z,1.62
2017-12-14T05:02:45.726Z,2.50
2017-12-14T05:05:12.019Z,1.75
2017-12-14T05:07:38.253Z,2.55
2017-12-14T05:10:04.501Z,6.03
2017-12-14T05:12:30.770Z,2.85
2017-12-14T05:14:57.280Z,2.15
2017-12-14T05:17:23.545Z,2.75
2017-12-14T05:19:49.809Z,2.80
2017-12-14T05:22:16.036Z,1.77
2017-12-14T05:24:42.304Z,0.60
2017-12-14T05:27:08.970Z,1.20
2017-12-14T05:29:35.554Z,0.90
2017-12-14T05:32:01.807Z,0.93
2017-12-14T05:34:28.396Z,0.80
2017-12-14T05:36:54.682Z,1.62
2017-12-14T05:39:21.867Z,0.88
2017-12-14T05:41:48.103Z,1.50
2017-12-14T05:44:14.343Z,1.60
2017-12-14T05:46:40.597Z,3.35
2017-12-14T05:49:07.317Z,3.22
2017-12-14T05:51:33.589Z,2.42
2017-12-14T05:53:59.822Z,4.70
2017-12-14T05:56:26.115Z,3.75
2017-12-14T05:58:52.353Z,11.65
2017-12-14T06:01:19.020Z,6.60
2017-12-14T06:03:45.227Z,26.60
2017-12-14T06:06:11.924Z,42.08
2017-12-14T06:08:38.140Z,41.92
2017-12-14T06:11:04.377Z,41.65
2017-12-14T06:13:30.722Z,47.45
2017-12-14T06:15:56.963Z,45.22
2017-12-14T06:18:23.676Z,48.20
2017-12-14T06:20:49.947Z,49.03
2017-12-14T06:23:16.566Z,44.70
2017-12-14T06:25:42.829Z,48.60
2017-12-14T06:28:09.073Z,49.90
2017-12-14T06:30:35.315Z,72.60
2017-12-14T06:33:01.581Z,73.37
2017-12-14T06:35:27.843Z,77.90
2017-12-14T06:37:54.090Z,75.43
2017-12-14T06:40:20.358Z,71.68
2017-12-14T06:42:47.044Z,73.07
2017-12-14T06:45:13.303Z,75.75
2017-12-14T06:47:39.572Z,62.03
2017-12-14T06:50:06.159Z,25.42
2017-12-14T06:52:32.443Z,35.03
2017-12-14T06:54:59.056Z,1.58
2017-12-14T06:57:25.368Z,1.87
2017-12-14T06:59:51.602Z,1.62
2017-12-14T07:02:17.878Z,1.75
2017-12-14T07:04:44.156Z,8.88
2017-12-14T07:07:11.378Z,2.20
2017-12-14T07:09:37.614Z,1.33
2017-12-14T07:12:03.861Z,2.03
2017-12-14T07:14:31.130Z,6.03
2017-12-14T07:16:57.424Z,1.52
2017-12-14T07:19:23.664Z,2.80
2017-12-14T07:21:49.956Z,2.30
2017-12-14T07:24:16.227Z,2.58
2017-12-14T07:26:42.454Z,4.68
2017-12-14T07:29:08.738Z,2.03
2017-12-14T07:31:35.362Z,2.92
2017-12-14T07:34:01.985Z,2.87
2017-12-14T07:36:29.324Z,2.95
2017-12-14T07:38:56.225Z,1.73
2017-12-14T07:41:22.483Z,2.80
2017-12-14T07:44:00.858Z,3.35
2017-12-14T07:46:29.961Z,2.42
2017-12-14T07:49:08.565Z,3.35
2017-12-14T07:51:34.835Z,3.25
2017-12-14T07:54:08.568Z,1.30
2017-12-14T07:56:34.784Z,5.55
2017-12-14T07:59:01.028Z,4.35
2017-12-14T08:01:27.269Z,2.37
2017-12-14T08:03:53.881Z,2.22
2017-12-14T08:06:20.130Z,4.93
2017-12-14T08:08:46.355Z,5.95
2017-12-14T08:11:12.618Z,3.67
2017-12-14T08:13:38.874Z,4.15
2017-12-14T08:16:05.122Z,5.80
2017-12-14T08:18:31.365Z,7.15
2017-12-14T08:20:57.648Z,2.45
2017-12-14T08:23:23.883Z,4.12
2017-12-14T08:25:50.159Z,4.72
2017-12-14T08:28:16.424Z,4.00
2017-12-14T08:30:42.655Z,8.07
2017-12-14T08:33:08.953Z,3.72
2017-12-14T08:35:36.261Z,2.10
2017-12-14T08:38:02.498Z,3.78
2017-12-14T08:40:28.892Z,6.22
2017-12-14T08:42:55.159Z,5.20
2017-12-14T08:45:21.448Z,4.53
2017-12-14T08:47:47.711Z,2.80
2017-12-14T08:50:13.955Z,2.75
2017-12-14T08:52:40.191Z,3.08
2017-12-14T08:55:07.488Z,5.07
2017-12-14T08:57:33.717Z,4.18
2017-12-14T08:59:59.984Z,5.55
2017-12-14T09:02:26.744Z,3.85
2017-12-14T09:04:53.010Z,5.90
2017-12-14T09:07:19.927Z,4.78
2017-12-14T09:09:46.513Z,3.78
2017-12-14T09:12:12.735Z,3.37
2017-12-14T09:14:39.004Z,6.50
2017-12-14T09:17:05.298Z,8.73
2017-12-14T09:19:31.566Z,7.43
2017-12-14T09:21:57.816Z,3.28
2017-12-14T09:24:24.415Z,11.12
2017-12-14T09:26:50.702Z,7.28
2017-12-14T09:29:16.933Z,3.58
2017-12-14T09:31:43.192Z,2.55
2017-12-14T09:34:09.460Z,4.87
2017-12-14T09:36:35.765Z,4.03
2017-12-14T09:39:02.069Z,3.85
2017-12-14T09:41:28.346Z,3.33
2017-12-14T09:43:54.962Z,2.33
2017-12-14T09:46:21.179Z,3.92
2017-12-14T09:48:47.456Z,2.37
2017-12-14T09:51:14.062Z,4.47
2017-12-14T09:53:40.316Z,2.67
2017-12-14T09:56:06.589Z,1.30
2017-12-14T09:58:32.838Z,2.75
2017-12-14T10:00:59.112Z,3.00
2017-12-14T10:03:25.731Z,3.22
2017-12-14T10:05:52.935Z,4.03
2017-12-14T10:08:19.214Z,2.55
2017-12-14T10:10:45.812Z,4.62
2017-12-14T10:13:12.075Z,5.20
2017-12-14T10:15:38.706Z,2.85
2017-12-14T10:18:04.958Z,4.75
2017-12-14T10:20:31.241Z,1.27
2017-12-14T10:22:57.508Z,1.37
2017-12-14T10:25:24.143Z,3.55
2017-12-14T10:27:50.786Z,3.45
2017-12-14T10:30:17.042Z,3.10
2017-12-14T10:32:43.272Z,2.10
2017-12-14T10:35:09.549Z,2.37
2017-12-14T10:37:35.809Z,2.35
2017-12-14T10:40:02.470Z,3.03
2017-12-14T10:42:28.738Z,2.92
2017-12-14T10:44:54.986Z,1.42
2017-12-14T10:47:21.291Z,5.12
2017-12-14T10:49:47.532Z,1.95
2017-12-14T10:52:13.818Z,1.90
2017-12-14T10:54:40.078Z,3.08
2017-12-14T10:57:06.392Z,4.25
2017-12-14T10:59:32.622Z,2.92
2017-12-14T11:01:58.860Z,2.95
2017-12-14T11:04:25.131Z,2.78
2017-12-14T11:06:51.768Z,2.67
2017-12-14T11:09:18.439Z,2.95
2017-12-14T11:11:44.685Z,3.00
2017-12-14T11:14:10.923Z,4.60
2017-12-14T11:16:37.182Z,2.15
2017-12-14T11:19:03.467Z,3.12
2017-12-14T11:21:29.775Z,2.67
2017-12-14T11:23:56.015Z,2.62
2017-12-14T11:26:22.285Z,2.47
2017-12-14T11:28:48.592Z,3.55
2017-12-14T11:31:14.855Z,4.75
2017-12-14T11:33:41.450Z,4.95
2017-12-14T11:36:07.700Z,4.32
2017-12-14T11:38:33.960Z,3.58
2017-12-14T11:41:00.617Z,3.28
2017-12-14T11:43:26.901Z,2.35
2017-12-14T11:45:53.193Z,4.60
2017-12-14T11:48:19.462Z,5.82
2017-12-14T11:50:45.717Z,4.50
2017-12-14T11:53:12.342Z,3.55
2017-12-14T11:55:38.997Z,2.20
2017-12-14T11:58:05.369Z,5.05
2017-12-14T12:00:31.608Z,3.08
2017-12-14T12:02:57.890Z,2.50
2017-12-14T12:05:25.112Z,2.62
2017-12-14T12:07:51.370Z,3.67
2017-12-14T12:10:17.651Z,3.42
2017-12-14T12:12:43.893Z,2.50
2017-12-14T12:15:10.157Z,3.17
2017-12-14T12:17:36.445Z,3.75
2017-12-14T12:20:02.721Z,3.05
2017-12-14T12:22:29.641Z,7.97
2017-12-14T12:24:56.259Z,3.72
2017-12-14T12:27:22.488Z,2.85
2017-12-14T12:29:48.770Z,2.47
2017-12-14T12:32:15.054Z,8.85
2017-12-14T12:34:42.310Z,3.72
2017-12-14T12:37:08.951Z,3.42
2017-12-14T12:39:35.611Z,6.78
2017-12-14T12:42:01.860Z,12.90
2017-12-14T12:44:28.817Z,5.70
2017-12-14T12:46:55.022Z,8.20
2017-12-14T12:49:21.304Z,4.37
2017-12-14T12:51:47.605Z,6.30
2017-12-14T12:54:13.895Z,2.60
2017-12-14T12:56:40.144Z,5.95
2017-12-14T12:59:06.401Z,8.18
2017-12-14T13:01:32.660Z,3.37
2017-12-14T13:03:59.307Z,12.70
2017-12-14T13:06:25.979Z,10.90
2017-12-14T13:08:52.245Z,5.40
2017-12-14T13:11:18.499Z,9.00
2017-12-14T13:13:45.156Z,6.30
2017-12-14T13:16:11.429Z,3.97
2017-12-14T13:18:37.684Z,3.67
2017-12-14T13:21:03.960Z,5.82
2017-12-14T13:23:30.214Z,3.72
2017-12-14T13:25:56.484Z,2.65
2017-12-14T13:28:23.165Z,5.18
2017-12-14T13:30:49.416Z,3.97
2017-12-14T13:33:15.709Z,8.38
2017-12-14T13:35:41.946Z,6.68
2017-12-14T13:38:08.175Z,5.75
2017-12-14T13:40:34.449Z,9.18
2017-12-14T13:43:00.737Z,4.10
2017-12-14T13:45:27.037Z,6.00
2017-12-14T13:47:53.257Z,4.93
2017-12-14T13:50:19.856Z,4.07
2017-12-14T13:52:46.186Z,6.00
2017-12-14T13:55:12.442Z,6.68
2017-12-14T13:57:38.716Z,2.92
2017-12-14T14:00:04.978Z,3.97
2017-12-14T14:02:31.239Z,7.37
2017-12-14T14:04:57.514Z,4.47
2017-12-14T14:07:24.650Z,5.72
2017-12-14T14:09:50.900Z,4.10
2017-12-14T14:12:17.140Z,9.45
2017-12-14T14:14:43.439Z,3.85
2017-12-14T14:17:09.704Z,9.38
2017-12-14T14:19:35.965Z,5.15
2017-12-14T14:22:02.251Z,5.65
2017-12-14T14:24:28.578Z,5.20
2017-12-14T14:26:54.885Z,13.13
2017-12-14T14:29:21.105Z,6.75
2017-12-14T14:31:47.370Z,6.12
2017-12-14T14:34:13.667Z,4.87
2017-12-14T14:36:39.924Z,6.95
2017-12-14T14:39:06.202Z,6.22
2017-12-14T14:41:33.413Z,11.00
2017-12-14T14:43:59.743Z,8.65
2017-12-14T14:46:25.967Z,5.05
2017-12-14T14:48:52.243Z,6.10
2017-12-14T14:51:18.499Z,8.02
2017-12-14T14:53:44.739Z,4.03
2017-12-14T14:56:11.008Z,4.78
2017-12-14T14:58:37.624Z,6.37
2017-12-14T15:01:05.455Z,6.78
2017-12-14T15:03:31.700Z,6.45
2017-12-14T15:05:57.957Z,4.20
2017-12-14T15:08:25.339Z,3.95
2017-12-14T15:10:51.634Z,10.95
2017-12-14T15:13:17.879Z,5.80
2017-12-14T15:15:44.657Z,10.57
2017-12-14T15:18:10.899Z,8.15
2017-12-14T15:20:37.171Z,8.68
2017-12-14T15:23:04.351Z,8.70
2017-12-14T15:25:30.585Z,8.00
2017-12-14T15:27:56.877Z,8.95
2017-12-14T15:30:23.836Z,11.48
2017-12-14T15:32:50.070Z,11.98
2017-12-14T15:35:16.317Z,9.05
2017-12-14T15:37:42.553Z,6.43
2017-12-14T15:40:08.834Z,5.28
2017-12-14T15:42:35.122Z,7.55
2017-12-14T15:45:01.426Z,6.82
2017-12-14T15:47:27.688Z,5.70
2017-12-14T15:49:53.909Z,12.73
2017-12-14T15:52:20.426Z,10.85
2017-12-14T15:54:47.093Z,7.75
2017-12-14T15:57:13.421Z,6.97
2017-12-14T15:59:39.735Z,4.53
2017-12-14T16:02:05.951Z,5.32
2017-12-14T16:04:32.154Z,4.50
2017-12-14T16:06:58.781Z,5.22
2017-12-14T16:09:25.054Z,7.97
2017-12-14T16:11:51.291Z,4.82
2017-12-14T16:14:17.504Z,4.55
2017-12-14T16:16:43.757Z,3.60
2017-12-14T16:19:10.023Z,6.90
2017-12-14T16:21:36.273Z,6.85
2017-12-14T16:24:02.535Z,5.43
2017-12-14T16:26:28.864Z,8.60
2017-12-14T16:28:55.120Z,2.75
2017-12-14T16:31:21.434Z,3.62
2017-12-14T16:33:47.727Z,3.42
2017-12-14T16:36:14.009Z,2.40
2017-12-14T16:38:40.278Z,3.05
2017-12-14T16:41:06.499Z,2.20
2017-12-14T16:43:32.732Z,3.62
2017-12-14T16:45:59.093Z,1.65
2017-12-14T16:48:25.370Z,4.53
2017-12-14T16:50:52.605Z,3.05
2017-12-14T16:53:18.890Z,2.92
2017-12-14T16:55:45.133Z,3.28
2017-12-14T16:58:11.424Z,2.20
2017-12-14T17:00:38.081Z,1.87
2017-12-14T17:03:04.697Z,3.00
2017-12-14T17:05:31.343Z,2.92
2017-12-14T17:07:58.026Z,9.20
2017-12-14T17:10:24.294Z,2.50
2017-12-14T17:12:50.523Z,3.22
2017-12-14T17:15:16.788Z,4.07
2017-12-14T17:17:43.044Z,3.45
2017-12-14T17:20:09.266Z,3.30
2017-12-14T17:22:35.497Z,1.52
2017-12-14T17:25:01.747Z,2.65
2017-12-14T17:27:28.026Z,1.60
2017-12-14T17:29:54.268Z,2.17
2017-12-14T17:32:21.745Z,2.55
2017-12-14T17:34:47.995Z,2.55
2017-12-14T17:37:14.246Z,2.70
2017-12-14T17:39:40.506Z,3.58
2017-12-14T17:42:06.733Z,2.15
2017-12-14T17:44:33.056Z,1.60
2017-12-14T17:46:59.302Z,2.10
2017-12-14T17:49:25.573Z,5.45
2017-12-14T17:51:51.858Z,2.30
2017-12-14T17:54:18.160Z,5.00
2017-12-14T17:56:44.431Z,2.10
2017-12-14T17:59:10.687Z,1.92
2017-12-14T18:01:36.926Z,3.08
2017-12-14T18:04:03.223Z,2.30
2017-12-14T18:06:29.495Z,2.05
2017-12-14T18:08:56.190Z,2.42
2017-12-14T18:11:22.430Z,1.80
2017-12-14T18:13:48.722Z,2.60
2017-12-14T18:16:15.005Z,5.35
2017-12-14T18:18:41.303Z,1.85
2017-12-14T18:21:07.618Z,1.80
2017-12-14T18:23:34.869Z,1.42
2017-12-14T18:26:01.128Z,2.00
2017-12-14T18:28:27.419Z,1.48
2017-12-14T18:30:53.658Z,2.70
2017-12-14T18:33:19.962Z,1.45
2017-12-14T18:35:46.299Z,1.98
2017-12-14T18:38:12.624Z,1.87
2017-12-14T18:40:38.916Z,5.05
2017-12-14T18:43:05.275Z,3.35
2017-12-14T18:45:31.602Z,2.20
2017-12-14T18:47:58.310Z,1.65
2017-12-14T18:50:24.649Z,1.95
2017-12-14T18:52:50.988Z,1.85
2017-12-14T18:55:17.327Z,3.03
2017-12-14T18:57:43.824Z,2.30
2017-12-14T19:00:10.264Z,2.42
2017-12-14T19:02:36.621Z,2.25
2017-12-14T19:05:03.365Z,2.47
2017-12-14T19:07:31.072Z,2.55
2017-12-14T19:09:57.379Z,2.30
2017-12-14T19:12:23.784Z,3.10
2017-12-14T19:14:50.458Z,2.47
2017-12-14T19:17:16.798Z,2.40
2017-12-14T19:19:43.478Z,2.60
2017-12-14T19:22:09.845Z,3.15
2017-12-14T19:24:36.179Z,2.35
2017-12-14T19:27:02.526Z,2.92
2017-12-14T19:29:28.946Z,2.58
2017-12-14T19:32:09.817Z,2.95
2017-12-14T19:34:43.578Z,3.28
2017-12-14T19:37:23.075Z,3.33
2017-12-14T19:40:08.701Z,2.95
2017-12-14T19:42:43.652Z,2.62
2017-12-14T19:45:10.421Z,3.00
2017-12-14T19:47:36.708Z,3.20
2017-12-14T19:50:03.034Z,2.78
2017-12-14T19:52:29.416Z,2.67
2017-12-14T19:54:55.791Z,2.65
2017-12-14T19:57:22.160Z,2.85
2017-12-14T19:59:49.128Z,3.55
2017-12-14T20:02:15.411Z,2.80
2017-12-14T20:04:42.370Z,3.83
2017-12-14T20:07:09.162Z,5.90
2017-12-14T20:09:35.480Z,4.65
2017-12-14T20:12:01.850Z,3.20
2017-12-14T20:14:28.254Z,5.12
2017-12-14T20:16:54.547Z,3.12
2017-12-14T20:19:20.892Z,2.85
2017-12-14T20:21:47.252Z,4.25
2017-12-14T20:24:14.560Z,5.85
2017-12-14T20:26:40.946Z,4.07
2017-12-14T20:29:07.296Z,4.72
2017-12-14T20:31:34.065Z,6.28
2017-12-14T20:34:01.345Z,3.22
2017-12-14T20:36:27.629Z,3.75
2017-12-14T20:38:54.488Z,3.80
2017-12-14T20:41:20.859Z,2.60
2017-12-14T20:43:47.203Z,2.95
2017-12-14T20:46:13.540Z,3.33
2017-12-14T20:48:40.049Z,2.72
2017-12-14T20:51:06.446Z,3.10
2017-12-14T20:56:45.502Z,2.47
2017-12-14T20:59:17.782Z,2.12
2017-12-14T21:01:52.127Z,4.65
2017-12-14T21:04:28.636Z,2.78
2017-12-14T21:06:55.432Z,3.12
2017-12-14T21:09:21.749Z,2.00
2017-12-14T21:11:48.041Z,1.85
2017-12-14T21:14:14.347Z,2.30
2017-12-14T21:16:40.634Z,2.40
2017-12-14T21:19:06.883Z,3.12
2017-12-14T21:21:33.230Z,2.58
2017-12-14T21:23:59.559Z,1.65
2017-12-14T21:26:25.808Z,1.80
2017-12-14T21:28:52.527Z,1.37
2017-12-14T21:31:20.075Z,2.08
2017-12-14T21:33:46.401Z,1.50
2017-12-14T21:36:12.707Z,1.80
2017-12-14T21:38:39.040Z,1.83
2017-12-14T21:41:05.298Z,1.52
2017-12-14T21:43:31.706Z,2.33
2017-12-14T21:45:57.965Z,1.50
2017-12-14T21:48:24.246Z,2.62
2017-12-14T21:50:50.616Z,2.50
2017-12-14T21:53:16.918Z,2.10
2017-12-14T21:55:43.229Z,2.60
2017-12-14T21:58:09.507Z,2.47
2017-12-14T22:00:35.752Z,2.47
2017-12-14T22:03:01.993Z,2.35
2017-12-14T22:05:28.678Z,2.45
2017-12-14T22:07:54.959Z,2.10
2017-12-14T22:10:21.227Z,2.62
2017-12-14T22:12:47.495Z,2.83
2017-12-14T22:15:13.728Z,3.10
2017-12-14T22:17:39.984Z,2.90
2017-12-14T22:20:06.618Z,1.70
2017-12-14T22:22:33.294Z,2.15
2017-12-14T22:24:59.557Z,1.50
2017-12-14T22:27:25.830Z,2.97
2017-12-14T22:29:52.121Z,3.08
2017-12-14T22:32:18.410Z,2.33
2017-12-14T22:34:44.680Z,1.90
2017-12-14T22:37:10.933Z,2.03
2017-12-14T22:39:37.876Z,2.60
2017-12-14T22:42:04.574Z,2.58
2017-12-14T22:44:31.224Z,2.47
2017-12-14T22:46:57.476Z,2.30
2017-12-14T22:49:24.056Z,2.70
2017-12-14T22:51:50.299Z,2.55
2017-12-14T22:54:16.533Z,3.00
2017-12-14T22:56:42.772Z,2.50
2017-12-14T22:59:09.030Z,2.80
2017-12-14T23:01:35.270Z,2.95
2017-12-14T23:04:01.544Z,2.85
2017-12-14T23:06:27.952Z,3.50
2017-12-14T23:08:54.174Z,2.25
2017-12-14T23:11:20.399Z,2.90
2017-12-14T23:13:46.620Z,3.08
2017-12-14T23:16:12.921Z,2.47
2017-12-14T23:18:39.194Z,2.30
2017-12-14T23:21:05.509Z,2.28
2017-12-14T23:23:31.736Z,2.30
2017-12-14T23:25:58.455Z,2.05
2017-12-14T23:28:25.602Z,2.87
2017-12-14T23:30:52.198Z,2.53
2017-12-14T23:33:18.539Z,2.80
2017-12-14T23:35:44.771Z,1.73
2017-12-14T23:38:12.506Z,3.85
2017-12-14T23:40:38.807Z,2.10
2017-12-14T23:43:05.052Z,2.10
2017-12-14T23:45:31.267Z,2.15
2017-12-14T23:47:57.476Z,1.80
2017-12-14T23:50:24.137Z,1.50
2017-12-14T23:52:50.353Z,1.50
2017-12-14T23:55:16.673Z,1.50
2017-12-14T23:57:43.327Z,1.65
